Time;durP1;ratioP1;P1;durP2;ratioP2;P2;SDS_P1;SDS_P2;PMS_P1;PMS_P2;Temp;Humidity;BMP_temperature;BMP_pressure;BME280_temperature;BME280_humidity;BME280_pressure;Samples;Min_cycle;Max_cycle;Signal;HPM_P1;HPM_P2
2023/01/02 00:01:18;;;;;;;;;;;;;;;13.66;79.69;100168.03;5071455;28;19938;-58
2023/01/02 00:03:43;;;;;;;;;;;;;;;13.72;78.76;100170.44;5090293;28;20398;-57
2023/01/02 00:06:09;;;;;;;;;;;;;;;13.77;77.93;100170.25;5088445;28;20026;-58
2023/01/02 00:08:34;;;;;;;;;;;;;;;13.80;77.53;100164.78;5091495;28;19937;-58
2023/01/02 00:10:59;;;;;;;;;;;;;;;13.80;77.68;100168.34;5089681;28;20321;-57
2023/01/02 00:13:24;;;;;;;;;;;;;;;13.80;77.37;100156.75;5090790;28;20389;-58
2023/01/02 00:15:50;;;;;;;;;;;;;;;13.80;76.72;100152.28;5091174;28;19973;-58
2023/01/02 00:18:15;;;;;;;;;;;;;;;13.90;76.25;100144.72;5091047;28;19950;-58
2023/01/02 00:20:40;;;;;;;;;;;;;;;13.98;74.70;100139.91;5074182;28;20024;-58
2023/01/02 00:23:05;;;;;;;;;;;;;;;14.05;73.55;100141.38;5086947;28;19980;-58
2023/01/02 00:25:33;;;;;;;;;;;;;;;14.10;73.79;100128.66;5081523;28;19942;-57
2023/01/02 00:27:58;;;;;;;;;;;;;;;14.11;73.69;100125.03;5071011;28;20464;-58
2023/01/02 00:30:24;;;;;;;;;;;;;;;14.14;73.80;100116.88;5071588;28;19997;-58
2023/01/02 00:32:49;;;;;;;;;;;;;;;14.18;73.49;100122.00;5072685;28;20025;-57
2023/01/02 00:35:14;;;;;;;;;;;;;;;14.23;71.90;100129.84;5071024;28;19932;-58
2023/01/02 00:37:39;;;;;;;;;;;;;;;14.32;71.64;100134.78;5075561;28;20409;-58
2023/01/02 00:40:05;;;;;;;;;;;;;;;14.33;72.26;100145.44;5072352;28;19965;-58
2023/01/02 00:42:30;;;;;;;;;;;;;;;14.32;73.60;100140.16;5089238;28;20362;-58
2023/01/02 00:44:56;;;;;;;;;;;;;;;14.28;72.86;100139.41;5093365;28;20640;-58
2023/01/02 00:47:21;;;;;;;;;;;;;;;14.28;72.67;100139.41;5093861;28;19946;-58
2023/01/02 00:49:46;;;;;;;;;;;;;;;14.27;72.52;100142.16;5081789;28;19993;-58
2023/01/02 00:52:11;;;;;;;;;;;;;;;14.27;73.17;100142.16;5074892;28;19990;-58
2023/01/02 00:54:37;;;;;;;;;;;;;;;14.25;73.42;100149.38;5092552;28;19987;-58
2023/01/02 00:57:02;;;;;;;;;;;;;;;14.23;73.67;100146.75;5074557;28;19934;-57
2023/01/02 00:59:27;;;;;;;;;;;;;;;14.21;74.25;100150.44;5074982;28;20066;-58
2023/01/02 01:01:52;;;;;;;;;;;;;;;14.20;74.10;100146.91;5095752;28;19939;-58
2023/01/02 01:04:18;;;;;;;;;;;;;;;14.27;71.07;100147.53;5095693;28;19957;-58
2023/01/02 01:06:43;;;;;;;;;;;;;;;14.34;69.22;100148.97;5081633;28;19936;-58
2023/01/02 01:09:08;;;;;;;;;;;;;;;14.43;69.63;100143.22;5090913;28;20021;-58
2023/01/02 01:11:33;;;;;;;;;;;;;;;14.47;69.36;100144.81;5094728;28;19937;-57
2023/01/02 01:13:59;;;;;;;;;;;;;;;14.47;69.69;100137.66;5094375;28;19972;-58
2023/01/02 01:16:25;;;;;;;;;;;;;;;14.45;70.34;100141.31;5077137;28;19942;-58
2023/01/02 01:18:53;;;;;;;;;;;;;;;14.40;70.24;100138.88;5078763;28;19961;-57
2023/01/02 01:21:19;;;;;;;;;;;;;;;14.38;70.47;100145.25;5076125;28;19945;-58
2023/01/02 01:23:48;;;;;;;;;;;;;;;14.30;71.47;100144.69;5073278;28;19939;-57
2023/01/02 01:26:13;;;;;;;;;;;;;;;14.20;72.54;100140.69;5075455;28;19996;-58
2023/01/02 01:28:39;;;;;;;;;;;;;;;14.12;73.79;100140.16;5073179;28;20602;-58
2023/01/02 01:31:05;;;;;;;;;;;;;;;14.00;73.86;100128.19;5073184;28;19958;-58
2023/01/02 01:33:31;;;;;;;;;;;;;;;13.94;75.02;100122.25;5073291;28;19979;-58
2023/01/02 01:36:03;;;;;;;;;;;;;;;13.89;75.36;100129.59;5076558;28;19956;-59
2023/01/02 01:38:29;;;;;;;;;;;;;;;13.83;76.20;100127.22;5071088;28;20057;-57
2023/01/02 01:40:54;;;;;;;;;;;;;;;13.78;76.42;100123.88;5074007;28;20049;-58
2023/01/02 01:43:39;;;;;;;;;;;;;;;13.71;76.38;100119.72;5082347;28;20692;-57
2023/01/02 01:46:06;;;;;;;;;;;;;;;13.66;75.95;100113.69;5094023;28;20293;-57
2023/01/02 01:48:32;;;;;;;;;;;;;;;13.68;75.90;100114.50;5094049;28;19975;-58
2023/01/02 01:50:57;;;;;;;;;;;;;;;13.68;76.45;100119.84;5092800;28;20080;-58
2023/01/02 01:53:24;;;;;;;;;;;;;;;13.69;74.81;100110.91;5075526;28;20342;-57
2023/01/02 01:55:54;;;;;;;;;;;;;;;13.70;75.30;100109.97;5074220;28;19947;-58
2023/01/02 01:58:21;;;;;;;;;;;;;;;13.70;75.65;100107.31;5095160;28;19945;-58
2023/01/02 02:00:47;;;;;;;;;;;;;;;13.65;76.29;100099.50;5091558;28;20469;-58
2023/01/02 02:03:17;;;;;;;;;;;;;;;13.62;76.96;100109.44;5076896;28;19935;-59
2023/01/02 02:05:43;;;;;;;;;;;;;;;13.56;77.70;100117.72;5092971;28;19954;-58
2023/01/02 02:08:08;;;;;;;;;;;;;;;13.49;78.30;100103.78;5089417;28;19942;-58
2023/01/02 02:10:35;;;;;;;;;;;;;;;13.45;79.08;100106.63;5076053;28;20391;-58
2023/01/02 02:13:00;;;;;;;;;;;;;;;13.39;79.80;100106.88;5073049;28;19931;-58
2023/01/02 02:15:29;;;;;;;;;;;;;;;13.35;79.91;100110.59;5075558;28;19992;-58
2023/01/02 02:18:00;;;;;;;;;;;;;;;13.32;78.14;100102.72;5073569;28;19990;-58
2023/01/02 02:20:46;;;;;;;;;;;;;;;13.32;77.23;100103.59;5092672;28;20016;-58
2023/01/02 02:23:20;;;;;;;;;;;;;;;13.34;76.83;100103.53;5071982;28;19946;-58
2023/01/02 02:26:00;;;;;;;;;;;;;;;13.39;76.23;100102.41;5073105;28;19974;-57
2023/01/02 02:28:25;;;;;;;;;;;;;;;13.48;74.76;100099.34;5077463;28;19940;-58
2023/01/02 02:30:54;;;;;;;;;;;;;;;13.57;74.74;100100.75;5072802;28;19943;-58
2023/01/02 02:33:25;;;;;;;;;;;;;;;13.62;75.18;100093.41;5073047;28;19940;-58
2023/01/02 02:36:09;;;;;;;;;;;;;;;13.66;75.29;100092.31;5073326;28;19938;-58
2023/01/02 02:38:37;;;;;;;;;;;;;;;13.72;72.07;100084.06;5077351;28;19963;-58
2023/01/02 02:41:08;;;;;;;;;;;;;;;13.86;71.47;100086.97;5072697;28;19937;-58
2023/01/02 02:43:53;;;;;;;;;;;;;;;13.89;71.76;100081.47;5076152;28;20285;-58
2023/01/02 02:46:30;;;;;;;;;;;;;;;13.88;72.43;100080.63;5112520;28;20757;-58
2023/01/02 02:49:08;;;;;;;;;;;;;;;13.88;72.48;100085.09;5113068;28;19982;-58
2023/01/02 02:51:52;;;;;;;;;;;;;;;13.84;71.94;100084.34;5110134;28;19981;-58
2023/01/02 02:54:23;;;;;;;;;;;;;;;13.81;71.97;100084.50;5088300;28;20016;-57
2023/01/02 02:56:50;;;;;;;;;;;;;;;13.78;72.32;100079.28;5084562;28;19944;-58
2023/01/02 02:59:16;;;;;;;;;;;;;;;13.79;72.16;100082.84;5092297;28;19958;-58
2023/01/02 03:01:42;;;;;;;;;;;;;;;13.76;72.58;100078.50;5092473;28;19934;-58
2023/01/02 03:04:17;;;;;;;;;;;;;;;13.64;71.56;100080.84;5088396;28;19979;-58
2023/01/02 03:07:01;;;;;;;;;;;;;;;13.68;71.63;100080.63;5092948;28;19979;-58
2023/01/02 03:09:42;;;;;;;;;;;;;;;13.76;70.43;100078.50;5092526;28;20459;-58
2023/01/02 03:12:13;;;;;;;;;;;;;;;13.85;70.98;100080.78;5089165;28;19951;-58
2023/01/02 03:14:38;;;;;;;;;;;;;;;13.92;70.28;100081.34;5099929;28;19966;-58
2023/01/02 03:17:06;;;;;;;;;;;;;;;13.99;69.66;100082.78;5084137;28;19973;-57
2023/01/02 03:19:41;;;;;;;;;;;;;;;14.03;69.52;100074.59;5071959;28;20391;-58
2023/01/02 03:22:17;;;;;;;;;;;;;;;14.10;69.31;100081.38;5071613;28;20066;-58
2023/01/02 03:24:44;;;;;;;;;;;;;;;14.21;68.33;100075.53;5071977;28;19936;-58
2023/01/02 03:27:12;;;;;;;;;;;;;;;14.29;67.97;100076.06;5074293;28;19943;-58
2023/01/02 03:29:51;;;;;;;;;;;;;;;14.31;66.98;100084.91;5071891;28;19999;-58
2023/01/02 03:32:19;;;;;;;;;;;;;;;14.31;67.94;100084.91;5070667;28;20623;-58
2023/01/02 03:34:47;;;;;;;;;;;;;;;14.32;67.44;100081.28;5071208;28;21621;-57
2023/01/02 03:37:16;;;;;;;;;;;;;;;14.30;67.62;100078.69;5078731;28;20509;-57
2023/01/02 03:39:45;;;;;;;;;;;;;;;14.36;66.72;100069.50;5070305;28;19975;-58
2023/01/02 03:42:21;;;;;;;;;;;;;;;14.37;66.82;100080.13;5070680;28;20018;-58
2023/01/02 03:44:48;;;;;;;;;;;;;;;14.35;67.67;100075.78;5090160;28;19948;-58
2023/01/02 03:47:14;;;;;;;;;;;;;;;14.32;68.17;100075.94;5091716;28;19943;-58
2023/01/02 03:49:42;;;;;;;;;;;;;;;14.31;67.70;100074.22;5088496;28;19942;-58
2023/01/02 03:52:07;;;;;;;;;;;;;;;14.32;67.71;100075.94;5091314;28;19979;-57
2023/01/02 03:54:32;;;;;;;;;;;;;;;14.31;67.92;100071.53;5090483;28;19945;-57
2023/01/02 03:56:57;;;;;;;;;;;;;;;14.30;68.41;100067.09;5073824;28;19990;-57
2023/01/02 03:59:26;;;;;;;;;;;;;;;14.28;68.02;100058.31;5074774;28;20427;-57
2023/01/02 04:02:04;;;;;;;;;;;;;;;14.28;66.63;100055.63;5073724;28;20404;-57
2023/01/02 04:04:32;;;;;;;;;;;;;;;14.37;64.87;100060.53;5085767;28;20001;-57
2023/01/02 04:07:00;;;;;;;;;;;;;;;14.50;63.78;100059.00;5091556;28;19935;-57
2023/01/02 04:09:27;;;;;;;;;;;;;;;14.62;62.97;100058.44;5071276;28;19930;-57
2023/01/02 04:11:56;;;;;;;;;;;;;;;14.68;62.91;100046.56;5071154;28;19944;-57
2023/01/02 04:14:29;;;;;;;;;;;;;;;14.73;60.79;100050.72;5088116;28;20365;-57
2023/01/02 04:16:57;;;;;;;;;;;;;;;14.83;59.59;100051.13;5091687;28;20400;-57
2023/01/02 04:19:24;;;;;;;;;;;;;;;14.89;60.19;100056.22;5082615;28;20600;-57
2023/01/02 04:21:53;;;;;;;;;;;;;;;14.90;59.60;100058.81;5071227;28;19959;-57
2023/01/02 04:24:20;;;;;;;;;;;;;;;14.87;59.70;100058.97;5084683;28;19936;-57
2023/01/02 04:26:55;;;;;;;;;;;;;;;14.80;61.91;100057.53;5088857;28;20411;-58
2023/01/02 04:29:20;;;;;;;;;;;;;;;14.69;63.45;100059.88;5090892;28;19947;-57
2023/01/02 04:31:52;;;;;;;;;;;;;;;14.56;65.28;100064.09;5087982;28;19952;-58
2023/01/02 04:34:18;;;;;;;;;;;;;;;14.44;66.59;100072.69;5091395;28;20039;-57
2023/01/02 04:36:44;;;;;;;;;;;;;;;14.33;66.72;100066.97;5091135;28;20432;-57
2023/01/02 04:39:09;;;;;;;;;;;;;;;14.25;67.30;100075.34;5085066;28;20039;-57
2023/01/02 04:41:35;;;;;;;;;;;;;;;14.16;68.55;100066.84;5071074;28;19942;-57
2023/01/02 04:44:00;;;;;;;;;;;;;;;14.09;67.53;100066.28;5071022;28;20032;-57
2023/01/02 04:46:27;;;;;;;;;;;;;;;14.05;66.33;100058.47;5088333;28;20368;-58
2023/01/02 04:48:53;;;;;;;;;;;;;;;14.00;66.96;100066.69;5091420;28;20059;-57
2023/01/02 04:51:18;;;;;;;;;;;;;;;13.96;67.65;100061.53;5085720;28;20024;-57
2023/01/02 04:53:46;;;;;;;;;;;;;;;13.92;68.77;100059.97;5090803;28;20022;-58
2023/01/02 04:56:11;;;;;;;;;;;;;;;13.87;70.69;100064.66;5090007;28;20309;-58
2023/01/02 04:58:37;;;;;;;;;;;;;;;13.76;71.27;100061.56;5055187;28;19961;-58
2023/01/02 05:01:06;;;;;;;;;;;;;;;13.71;71.39;100071.59;5070738;28;20334;-57
2023/01/02 05:03:32;;;;;;;;;;;;;;;13.69;70.44;100073.50;5079456;28;19961;-58
2023/01/02 05:06:00;;;;;;;;;;;;;;;13.67;70.88;100072.69;5089620;28;19948;-57
2023/01/02 05:08:27;;;;;;;;;;;;;;;13.62;72.85;100077.38;5071470;28;19961;-58
2023/01/02 05:10:52;;;;;;;;;;;;;;;13.57;72.39;100069.56;5072109;28;19979;-58
2023/01/02 05:13:17;;;;;;;;;;;;;;;13.56;71.64;100073.16;5070685;28;20386;-58
2023/01/02 05:15:43;;;;;;;;;;;;;;;13.53;72.33;100081.31;5073004;28;20084;-58
2023/01/02 05:18:08;;;;;;;;;;;;;;;13.53;72.40;100083.97;5070878;28;19942;-57
2023/01/02 05:20:33;;;;;;;;;;;;;;;13.53;71.92;100078.63;5084863;28;19958;-58
2023/01/02 05:25:43;;;;;;;;;;;;;;;13.48;70.57;100080.63;5070479;28;20055;-58
2023/01/02 05:28:08;;;;;;;;;;;;;;;13.51;68.41;100085.00;5075987;28;20021;-57
2023/01/02 05:30:36;;;;;;;;;;;;;;;13.51;68.62;100090.34;5073754;28;20738;-58
2023/01/02 05:33:01;;;;;;;;;;;;;;;13.45;69.08;100096.81;5076356;28;19956;-58
2023/01/02 05:35:26;;;;;;;;;;;;;;;13.41;71.44;100094.34;5073957;28;20302;-58
2023/01/02 05:37:52;;;;;;;;;;;;;;;13.35;72.38;100100.81;5091053;28;20029;-58
2023/01/02 05:40:18;;;;;;;;;;;;;;;13.31;73.35;100103.69;5090334;28;19958;-57
2023/01/02 05:42:43;;;;;;;;;;;;;;;13.28;73.70;100106.47;5093989;28;20520;-58
2023/01/02 05:45:08;;;;;;;;;;;;;;;13.25;72.81;100104.78;5087695;28;19944;-58
2023/01/02 05:47:34;;;;;;;;;;;;;;;13.23;72.35;100112.88;5073107;28;19942;-58
2023/01/02 05:49:59;;;;;;;;;;;;;;;13.23;71.90;100112.88;5076116;28;19935;-57
2023/01/02 05:52:24;;;;;;;;;;;;;;;13.23;72.94;100122.69;5092110;28;20368;-57
2023/01/02 05:54:49;;;;;;;;;;;;;;;13.24;74.96;100129.78;5088405;28;20014;-58
2023/01/02 05:57:15;;;;;;;;;;;;;;;13.14;76.02;100133.75;5093090;28;20081;-58
2023/01/02 05:59:40;;;;;;;;;;;;;;;12.97;75.93;100142.41;5090632;28;19968;-58
2023/01/02 06:02:05;;;;;;;;;;;;;;;12.82;76.73;100153.69;5073301;28;19930;-58
2023/01/02 06:04:30;;;;;;;;;;;;;;;12.79;77.44;100148.50;5099344;28;20440;-58
2023/01/02 06:06:56;;;;;;;;;;;;;;;12.79;78.08;100151.16;5094660;28;19952;-57
2023/01/02 06:09:21;;;;;;;;;;;;;;;12.83;78.01;100160.75;5075529;28;19938;-58
2023/01/02 06:11:46;;;;;;;;;;;;;;;12.83;76.53;100176.78;5085676;28;19951;-57
2023/01/02 06:14:11;;;;;;;;;;;;;;;12.81;77.03;100176.00;5092524;28;19944;-58
2023/01/02 06:16:37;;;;;;;;;;;;;;;12.91;76.37;100164.03;5075874;28;19989;-58
2023/01/02 06:19:03;;;;;;;;;;;;;;;12.92;76.45;100167.53;5094199;28;20322;-58
2023/01/02 06:21:28;;;;;;;;;;;;;;;12.94;77.08;100171.03;5089017;28;20437;-58
2023/01/02 06:23:55;;;;;;;;;;;;;;;12.98;76.40;100170.00;5093517;28;19932;-57
2023/01/02 06:26:20;;;;;;;;;;;;;;;13.02;73.52;100167.16;5093202;28;20387;-58
2023/01/02 06:28:48;;;;;;;;;;;;;;;13.10;72.82;100167.72;5093310;28;19945;-58
2023/01/02 06:31:14;;;;;;;;;;;;;;;13.24;70.67;100162.69;5079199;28;19949;-58
2023/01/02 06:33:40;;;;;;;;;;;;;;;13.41;68.68;100171.81;5073108;28;19937;-57
2023/01/02 06:36:06;;;;;;;;;;;;;;;13.46;68.34;100167.16;5077609;28;20396;-57
2023/01/02 06:38:32;;;;;;;;;;;;;;;13.59;67.23;100179.06;5092132;28;19970;-57
2023/01/02 06:40:58;;;;;;;;;;;;;;;13.68;67.34;100186.69;5093034;28;19976;-58
2023/01/02 06:43:24;;;;;;;;;;;;;;;13.75;65.08;100189.03;5093077;28;19941;-58
2023/01/02 06:45:50;;;;;;;;;;;;;;;13.81;66.51;100179.88;5089296;28;19951;-58
2023/01/02 06:48:15;;;;;;;;;;;;;;;13.83;66.41;100188.69;5092934;28;19959;-58
2023/01/02 06:50:41;;;;;;;;;;;;;;;13.84;65.68;100188.63;5094804;28;19965;-58
2023/01/02 06:53:07;;;;;;;;;;;;;;;13.83;65.86;100194.06;5074158;28;19989;-57
2023/01/02 06:55:32;;;;;;;;;;;;;;;13.85;65.71;100192.19;5072840;28;19963;-57
2023/01/02 06:57:57;;;;;;;;;;;;;;;13.87;64.81;100199.19;5072493;28;19982;-58
2023/01/02 07:00:22;;;;;;;;;;;;;;;13.86;65.98;100199.25;5074294;28;20665;-57
2023/01/02 07:02:48;;;;;;;;;;;;;;;13.89;65.02;100209.81;5072903;28;19991;-58
2023/01/02 07:05:13;;;;;;;;;;;;;;;13.87;65.16;100206.38;5092189;28;19953;-58
2023/01/02 07:07:39;;;;;;;;;;;;;;;13.80;66.84;100204.88;5077054;28;19948;-57
2023/01/02 07:10:04;;;;;;;;;;;;;;;13.76;67.05;100200.59;5074574;28;19941;-57
2023/01/02 07:12:29;;;;;;;;;;;;;;;13.71;67.36;100199.91;5071872;28;19932;-57
2023/01/02 07:14:55;;;;;;;;;;;;;;;13.69;68.17;100207.16;5072024;28;19941;-57
2023/01/02 07:17:20;;;;;;;;;;;;;;;13.66;66.86;100201.91;5071835;28;20309;-57
2023/01/02 07:19:45;;;;;;;;;;;;;;;13.69;66.89;100207.16;5074755;28;19962;-57
2023/01/02 07:22:10;;;;;;;;;;;;;;;13.73;66.06;100206.94;5094152;28;20387;-57
2023/01/02 07:24:36;;;;;;;;;;;;;;;13.76;67.02;100213.94;5092272;28;19931;-57
2023/01/02 07:27:01;;;;;;;;;;;;;;;13.77;66.97;100211.22;5089636;28;19944;-57
2023/01/02 07:29:26;;;;;;;;;;;;;;;13.78;67.04;100207.63;5074143;28;20021;-56
2023/01/02 07:31:52;;;;;;;;;;;;;;;13.78;67.53;100214.78;5072032;28;19940;-57
2023/01/02 07:34:17;;;;;;;;;;;;;;;13.79;67.39;100209.34;5073655;28;19953;-57
2023/01/02 07:36:42;;;;;;;;;;;;;;;13.81;67.26;100211.97;5086080;28;19941;-57
2023/01/02 07:39:07;;;;;;;;;;;;;;;13.80;65.90;100221.81;5085798;28;20340;-57
2023/01/02 07:41:33;;;;;;;;;;;;;;;13.83;65.20;100231.47;5071536;28;19940;-57
2023/01/02 07:43:58;;;;;;;;;;;;;;;13.86;64.94;100226.00;5070866;28;20378;-56
2023/01/02 07:46:24;;;;;;;;;;;;;;;13.92;65.54;100233.78;5071384;28;19947;-57
2023/01/02 07:48:49;;;;;;;;;;;;;;;13.89;65.47;100225.88;5068565;28;20464;-57
2023/01/02 07:51:15;;;;;;;;;;;;;;;13.88;66.33;100246.41;5071112;28;20033;-57
2023/01/02 07:53:40;;;;;;;;;;;;;;;13.91;64.17;100245.41;5072212;28;20002;-57
2023/01/02 07:56:05;;;;;;;;;;;;;;;13.97;64.35;100255.84;5088746;28;19940;-57
2023/01/02 07:58:31;;;;;;;;;;;;;;;14.01;64.17;100257.44;5094145;28;19995;-58
2023/01/02 08:00:56;;;;;;;;;;;;;;;14.04;64.42;100259.97;5078399;28;19991;-58
2023/01/02 08:03:22;;;;;;;;;;;;;;;14.07;63.30;100257.16;5076420;28;20067;-58
2023/01/02 08:05:47;;;;;;;;;;;;;;;14.11;62.63;100264.13;5087334;28;19974;-57
2023/01/02 08:08:12;;;;;;;;;;;;;;;14.19;62.37;100270.91;5071747;28;19979;-57
2023/01/02 08:10:38;;;;;;;;;;;;;;;14.25;62.25;100267.09;5071509;28;19933;-57
2023/01/02 08:13:03;;;;;;;;;;;;;;;14.26;62.10;100279.56;5070978;28;20415;-58
2023/01/02 08:15:29;;;;;;;;;;;;;;;14.29;61.29;100277.63;5073298;28;19998;-58
2023/01/02 08:17:55;;;;;;;;;;;;;;;14.38;60.43;100289.75;5078258;28;19932;-57
2023/01/02 08:20:20;;;;;;;;;;;;;;;14.42;59.71;100273.50;5087541;28;20310;-57
2023/01/02 08:22:45;;;;;;;;;;;;;;;14.51;59.18;100293.63;5091458;28;19937;-57
2023/01/02 08:25:11;;;;;;;;;;;;;;;14.64;58.24;100283.22;5084194;28;19955;-57
2023/01/02 08:27:36;;;;;;;;;;;;;;;14.72;58.93;100287.31;5073314;28;19949;-57
2023/01/02 08:30:02;;;;;;;;;;;;;;;14.73;58.66;100286.34;5070796;28;19946;-58
2023/01/02 08:32:27;;;;;;;;;;;;;;;14.83;58.13;100294.84;5070919;28;19954;-57
2023/01/02 08:34:52;;;;;;;;;;;;;;;14.79;57.85;100302.16;5071040;28;19943;-57
2023/01/02 08:37:17;;;;;;;;;;;;;;;14.82;57.91;100307.38;5082529;28;19953;-58
2023/01/02 08:39:43;;;;;;;;;;;;;;;14.84;60.05;100313.56;5086041;28;19965;-57
2023/01/02 08:42:08;;;;;;;;;;;;;;;14.82;59.74;100310.06;5088762;28;20412;-58
2023/01/02 08:44:34;;;;;;;;;;;;;;;14.84;59.27;100321.59;5088923;28;19944;-57
2023/01/02 08:46:59;;;;;;;;;;;;;;;14.90;59.47;100329.34;5090892;28;19960;-57
2023/01/02 08:49:25;;;;;;;;;;;;;;;14.90;58.92;100326.66;5073854;28;19956;-57
2023/01/02 08:51:50;;;;;;;;;;;;;;;14.90;59.27;100332.00;5070735;28;20338;-57
2023/01/02 08:54:15;;;;;;;;;;;;;;;15.02;58.39;100342.19;5078682;28;19994;-57
2023/01/02 08:56:41;;;;;;;;;;;;;;;15.08;59.03;100330.28;5088931;28;19954;-57
2023/01/02 08:59:08;;;;;;;;;;;;;;;15.11;57.94;100341.75;5072222;28;20421;-57
2023/01/02 09:01:33;;;;;;;;;;;;;;;15.12;58.27;100346.16;5075552;28;19975;-57
2023/01/02 09:03:59;;;;;;;;;;;;;;;15.13;57.14;100345.22;5084523;28;20343;-57
2023/01/02 09:06:25;;;;;;;;;;;;;;;15.14;56.39;100352.31;5090208;28;19943;-57
2023/01/02 09:08:51;;;;;;;;;;;;;;;15.17;57.10;100360.22;5087783;28;20099;-57
2023/01/02 09:11:18;;;;;;;;;;;;;;;15.21;55.72;100369.88;5094707;28;20323;-57
2023/01/02 09:13:43;;;;;;;;;;;;;;;15.30;56.04;100364.09;5097298;28;20323;-58
2023/01/02 09:16:09;;;;;;;;;;;;;;;15.31;55.38;100376.53;5080150;28;19948;-57
2023/01/02 09:18:35;;;;;;;;;;;;;;;15.34;55.19;100376.41;5073453;28;20308;-57
2023/01/02 09:21:01;;;;;;;;;;;;;;;15.37;56.23;100378.09;5077403;28;20442;-57
2023/01/02 09:23:26;;;;;;;;;;;;;;;15.38;55.84;100378.00;5093222;28;19933;-58
2023/01/02 09:25:51;;;;;;;;;;;;;;;15.33;55.34;100369.31;5093907;28;20440;-57
2023/01/02 09:28:16;;;;;;;;;;;;;;;15.31;56.11;100379.22;5077178;28;19944;-57
2023/01/02 09:30:42;;;;;;;;;;;;;;;15.25;56.90;100382.19;5073208;28;19940;-58
2023/01/02 09:33:07;;;;;;;;;;;;;;;15.24;57.58;100393.84;5076049;28;19953;-58
2023/01/02 09:35:33;;;;;;;;;;;;;;;15.23;56.84;100388.53;5074220;28;19967;-58
2023/01/02 09:37:58;;;;;;;;;;;;;;;15.27;57.04;100404.41;5092091;28;19943;-58
2023/01/02 09:40:24;;;;;;;;;;;;;;;15.31;57.41;100403.34;5076888;28;19960;-58
2023/01/02 09:42:50;;;;;;;;;;;;;;;15.38;58.17;100404.81;5073366;28;20603;-57
2023/01/02 09:45:16;;;;;;;;;;;;;;;15.45;57.63;100410.78;5094205;28;19969;-58
2023/01/02 09:47:43;;;;;;;;;;;;;;;15.56;56.43;100413.84;5082538;28;19978;-58
2023/01/02 09:50:34;;;;;;;;;;;;;;;15.78;54.49;100418.13;5073866;28;19938;-58
2023/01/02 09:52:59;;;;;;;;;;;;;;;16.24;54.43;100413.22;5072002;28;19995;-57
2023/01/02 09:56:03;;;;;;;;;;;;;;;16.58;53.01;100413.31;5073888;28;19935;-58
2023/01/02 09:58:37;;;;;;;;;;;;;;;17.29;50.10;100418.50;4992968;28;20565;-58
2023/01/02 10:01:04;;;;;;;;;;;;;;;17.51;49.90;100427.16;5009931;28;20000;-58
2023/01/02 10:03:35;;;;;;;;;;;;;;;17.42;49.60;100430.31;5053650;28;20335;-58
2023/01/02 10:06:04;;;;;;;;;;;;;;;17.30;49.97;100430.97;5091603;28;19955;-58
2023/01/02 10:08:42;;;;;;;;;;;;;;;17.30;50.23;100422.91;5083537;28;19946;-58
2023/01/02 10:11:26;;;;;;;;;;;;;;;17.31;49.84;100426.47;5093718;28;19939;-59
2023/01/02 10:13:57;;;;;;;;;;;;;;;17.60;49.58;100421.28;5089224;28;20380;-58
2023/01/02 10:16:30;;;;;;;;;;;;;;;18.05;48.22;100420.56;5084401;28;20499;-57
2023/01/02 10:18:57;;;;;;;;;;;;;;;18.27;48.97;100416.53;5092897;28;19962;-58
2023/01/02 10:21:25;;;;;;;;;;;;;;;18.34;46.97;100417.06;5076610;28;20318;-58
2023/01/02 10:23:54;;;;;;;;;;;;;;;18.37;45.95;100415.06;5081667;28;20320;-58
2023/01/02 10:26:22;;;;;;;;;;;;;;;18.80;47.55;100410.72;5093496;28;19982;-58
2023/01/02 10:28:58;;;;;;;;;;;;;;;19.34;44.57;100412.78;5089053;28;20376;-58
2023/01/02 10:31:26;;;;;;;;;;;;;;;19.68;44.85;100422.34;5093336;28;20376;-58
2023/01/02 10:33:54;;;;;;;;;;;;;;;20.88;41.84;100417.00;5093361;28;19942;-57
2023/01/02 10:36:27;;;;;;;;;;;;;;;21.03;41.63;100427.75;5090888;28;19938;-58
2023/01/02 10:38:56;;;;;;;;;;;;;;;20.62;42.60;100417.03;5072672;28;20343;-58
2023/01/02 10:41:22;;;;;;;;;;;;;;;20.05;44.12;100416.31;5073285;28;19944;-58
2023/01/02 10:43:51;;;;;;;;;;;;;;;19.39;43.46;100421.47;5074787;28;19956;-59
2023/01/02 10:46:16;;;;;;;;;;;;;;;18.94;45.15;100423.38;5072781;28;19984;-58
2023/01/02 10:48:42;;;;;;;;;;;;;;;18.67;46.11;100428.59;5081849;28;19985;-58
2023/01/02 10:51:12;;;;;;;;;;;;;;;18.57;46.34;100423.81;5092690;28;20058;-58
2023/01/02 10:53:37;;;;;;;;;;;;;;;18.56;46.23;100412.19;5092751;28;19969;-58
2023/01/02 10:56:04;;;;;;;;;;;;;;;18.87;46.32;100411.22;5092732;28;20369;-58
2023/01/02 10:58:31;;;;;;;;;;;;;;;18.92;46.28;100419.91;5092036;28;19951;-58
2023/01/02 11:01:04;;;;;;;;;;;;;;;18.89;45.80;100422.78;5092663;28;20442;-59
2023/01/02 11:03:30;;;;;;;;;;;;;;;19.23;45.65;100435.94;5089652;28;19972;-58
2023/01/02 11:05:56;;;;;;;;;;;;;;;19.69;44.73;100439.41;5091663;28;20433;-58
2023/01/02 11:08:23;;;;;;;;;;;;;;;19.89;44.75;100436.28;5072540;28;19939;-58
2023/01/02 11:10:49;;;;;;;;;;;;;;;19.77;44.08;100426.28;5073960;28;19978;-59
2023/01/02 11:13:18;;;;;;;;;;;;;;;19.67;45.59;100419.75;5072053;28;19938;-59
2023/01/02 11:15:52;;;;;;;;;;;;;;;19.76;44.22;100414.63;5074169;28;20430;-58
2023/01/02 11:18:19;;;;;;;;;;;;;;;19.80;45.02;100410.78;5072080;28;19941;-58
2023/01/02 11:20:52;;;;;;;;;;;;;;;19.90;45.19;100408.34;5076933;28;19960;-58
2023/01/02 11:23:20;;;;;;;;;;;;;;;19.85;45.22;100397.81;5091405;28;19992;-59
2023/01/02 11:25:46;;;;;;;;;;;;;;;19.61;45.30;100402.09;5087988;28;20466;-59
2023/01/02 11:28:19;;;;;;;;;;;;;;;19.52;45.28;100400.84;5091467;28;20353;-59
2023/01/02 11:31:00;;;;;;;;;;;;;;;19.76;45.62;100398.44;5091466;28;20026;-59
2023/01/02 11:33:27;;;;;;;;;;;;;;;20.17;45.20;100393.06;5085932;28;20306;-60
2023/01/02 11:36:12;;;;;;;;;;;;;;;20.33;43.14;100402.75;5071460;28;19968;-59
2023/01/02 11:38:43;;;;;;;;;;;;;;;20.25;43.48;100390.72;5087732;28;19967;-59
2023/01/02 11:41:23;;;;;;;;;;;;;;;20.17;43.53;100390.34;5073108;28;19937;-58
2023/01/02 11:43:51;;;;;;;;;;;;;;;20.04;43.99;100398.38;5070804;28;19923;-59
2023/01/02 11:46:27;;;;;;;;;;;;;;;19.73;44.63;100387.84;5072026;28;19974;-58
2023/01/02 11:48:57;;;;;;;;;;;;;;;19.64;45.32;100386.56;5069836;28;19931;-58
2023/01/02 11:51:22;;;;;;;;;;;;;;;19.41;45.69;100391.69;5071386;28;19985;-58
2023/01/02 11:53:50;;;;;;;;;;;;;;;19.15;45.75;100405.88;5070129;28;20608;-58
2023/01/02 11:56:21;;;;;;;;;;;;;;;19.00;46.65;100402.31;5074089;28;19931;-59
2023/01/02 11:58:51;;;;;;;;;;;;;;;18.82;47.34;100403.41;5072934;28;19936;-59
2023/01/02 12:01:23;;;;;;;;;;;;;;;18.67;47.89;100409.72;5076375;28;20312;-58
2023/01/02 12:03:48;;;;;;;;;;;;;;;18.54;48.32;100407.84;5078436;28;20002;-58
2023/01/02 12:06:17;;;;;;;;;;;;;;;18.40;48.39;100418.56;5083937;28;19998;-58
2023/01/02 12:08:42;;;;;;;;;;;;;;;18.37;48.05;100424.94;5080312;28;20382;-58
2023/01/02 12:11:10;;;;;;;;;;;;;;;18.28;49.33;100430.88;5073096;28;19942;-61
2023/01/02 12:13:51;;;;;;;;;;;;;;;18.26;49.43;100430.97;5087874;28;20759;-58
2023/01/02 12:16:42;;;;;;;;;;;;;;;18.20;49.95;100438.53;5085936;28;19934;-58
2023/01/02 12:19:13;;;;;;;;;;;;;;;18.19;50.88;100429.56;5090086;28;20414;-58
2023/01/02 12:21:58;;;;;;;;;;;;;;;18.12;50.78;100433.56;5085907;28;19940;-58
2023/01/02 12:24:35;;;;;;;;;;;;;;;18.16;51.14;100439.66;5089198;28;19932;-58
2023/01/02 12:27:03;;;;;;;;;;;;;;;18.16;52.43;100445.03;5079127;28;19929;-59
2023/01/02 12:29:45;;;;;;;;;;;;;;;18.00;52.83;100449.56;5089866;28;19932;-58
2023/01/02 12:32:16;;;;;;;;;;;;;;;17.98;53.87;100452.34;5082593;28;19946;-57
2023/01/02 12:34:47;;;;;;;;;;;;;;;17.93;53.45;100445.47;5069389;28;19931;-59
2023/01/02 12:37:28;;;;;;;;;;;;;;;17.82;53.42;100440.69;5075736;28;20297;-58
2023/01/02 12:40:15;;;;;;;;;;;;;;;17.75;54.10;100439.28;5091661;28;20005;-57
2023/01/02 12:42:52;;;;;;;;;;;;;;;17.64;53.43;100441.69;5088670;28;20324;-58